Archival Weather

South Haven Area Rgnl

South Haven, Michigan (KLWA)

Report from: Thursday, September 21, 2023 10:15 PM EDT
Current time: Sunday, July 14, 2024 6:55 AM EDT

Current weather – Weather history – Daily summaries
Weather forecast

Temperature18.8°C (65.8°F)
Dew point17.7°C (63.9°F)
Winds Calm
Visibility10 mi. (16.1 km)
Clouds Sky clear
Altimeter30.21 in.Hg (1023 mB)
Relative humidity93 %
Density altitude393 ft. (120 m)
Remarks Fully automated report
Automated weather observing station with precipitation discriminator
Flight conditions Visual Meteorological Conditions
Raw dataKLWA 220215Z AUTO 00000KT 10SM CLR 19/18 A3021 RMK AO2 T01880177
An error has occurred. This application may no longer respond until reloaded. Reload 🗙